createdAt,value
2023-03-03T00:02:20.338Z,5.50
2023-03-03T00:04:48.302Z,5.50
2023-03-03T00:07:23.263Z,5.50
2023-03-03T00:09:53.451Z,5.50
2023-03-03T00:12:24.738Z,5.50
2023-03-03T00:14:53.077Z,5.40
2023-03-03T00:17:27.329Z,5.40
2023-03-03T00:19:57.351Z,5.40
2023-03-03T00:22:38.260Z,5.40
2023-03-03T00:25:26.704Z,5.40
2023-03-03T00:27:56.072Z,5.40
2023-03-03T00:30:28.046Z,5.40
2023-03-03T00:32:56.156Z,5.40
2023-03-03T00:35:30.556Z,5.40
2023-03-03T00:38:01.860Z,5.30
2023-03-03T00:40:48.306Z,5.30
2023-03-03T00:43:25.206Z,5.30
2023-03-03T00:45:57.014Z,5.30
2023-03-03T00:48:30.176Z,5.30
2023-03-03T00:50:59.325Z,5.20
2023-03-03T00:53:29.969Z,5.20
2023-03-03T00:55:58.423Z,5.20
2023-03-03T00:58:28.442Z,5.20
2023-03-03T01:00:59.034Z,5.20
2023-03-03T01:03:27.531Z,5.20
2023-03-03T01:05:57.852Z,5.20
2023-03-03T01:08:25.929Z,5.10
2023-03-03T01:11:21.560Z,5.10
2023-03-03T01:13:51.619Z,5.10
2023-03-03T01:16:20.309Z,5.10
2023-03-03T01:18:47.377Z,5.10
2023-03-03T01:21:15.309Z,5.10
2023-03-03T01:23:43.321Z,5.00
2023-03-03T01:26:10.775Z,5.00
2023-03-03T01:28:37.901Z,5.00
2023-03-03T01:31:08.236Z,5.00
2023-03-03T01:33:36.654Z,5.00
2023-03-03T01:36:04.732Z,5.00
2023-03-03T01:38:36.256Z,4.90
2023-03-03T01:41:03.365Z,4.90
2023-03-03T01:43:31.733Z,4.90
2023-03-03T01:46:01.802Z,4.90
2023-03-03T01:48:42.906Z,4.90
2023-03-03T01:51:23.859Z,4.90
2023-03-03T01:54:01.299Z,4.90
2023-03-03T01:56:28.958Z,4.80
2023-03-03T01:59:23.865Z,4.80
2023-03-03T02:01:51.339Z,4.80
2023-03-03T02:04:19.363Z,4.80
2023-03-03T02:06:52.470Z,4.80
2023-03-03T02:09:47.708Z,4.80
2023-03-03T02:12:20.232Z,4.80
2023-03-03T02:14:49.288Z,4.80
2023-03-03T02:17:16.821Z,4.80
2023-03-03T02:20:14.576Z,4.70
2023-03-03T02:22:51.113Z,4.70
2023-03-03T02:25:48.483Z,4.70
2023-03-03T02:28:18.509Z,4.70
2023-03-03T02:30:47.176Z,4.70
2023-03-03T02:33:17.224Z,4.70
2023-03-03T02:35:46.234Z,4.70
2023-03-03T02:38:27.166Z,4.70
2023-03-03T02:41:31.788Z,4.70
2023-03-03T02:44:14.530Z,4.70
2023-03-03T02:46:44.945Z,4.70
2023-03-03T02:49:15.005Z,4.70
2023-03-03T02:51:42.240Z,4.70
2023-03-03T02:54:12.391Z,4.70
2023-03-03T02:56:45.863Z,4.70
2023-03-03T02:59:15.446Z,4.70
2023-03-03T03:01:46.514Z,4.70
2023-03-03T03:04:25.593Z,4.70
2023-03-03T03:06:53.768Z,4.70
2023-03-03T03:09:22.984Z,4.70
2023-03-03T03:11:53.412Z,4.70
2023-03-03T03:14:20.550Z,4.70
2023-03-03T03:16:51.251Z,4.70
2023-03-03T03:19:20.323Z,4.70
2023-03-03T03:21:50.499Z,4.80
2023-03-03T03:24:18.712Z,4.80
2023-03-03T03:26:48.781Z,4.80
2023-03-03T03:29:17.799Z,4.80
2023-03-03T03:31:47.807Z,4.80
2023-03-03T03:34:15.807Z,4.80
2023-03-03T03:36:47.048Z,4.80
2023-03-03T03:39:16.245Z,4.80
2023-03-03T03:41:44.197Z,4.80
2023-03-03T03:44:13.241Z,4.80
2023-03-03T03:46:43.383Z,4.80
2023-03-03T03:49:10.325Z,4.90
2023-03-03T03:51:41.529Z,4.90
2023-03-03T03:54:11.637Z,4.90
2023-03-03T03:56:39.871Z,4.90
2023-03-03T03:59:09.952Z,4.90
2023-03-03T04:01:36.984Z,4.90
2023-03-03T04:04:07.117Z,4.90
2023-03-03T04:06:34.205Z,4.90
2023-03-03T04:09:03.747Z,4.90
2023-03-03T04:11:33.894Z,4.90
2023-03-03T04:14:00.951Z,4.90
2023-03-03T04:16:28.033Z,4.90
2023-03-03T04:18:58.066Z,4.90
2023-03-03T04:21:28.269Z,4.90
2023-03-03T04:23:58.341Z,4.90
2023-03-03T04:26:26.914Z,4.90
2023-03-03T04:28:57.373Z,4.90
2023-03-03T04:31:25.732Z,4.90
2023-03-03T04:33:53.700Z,4.90
2023-03-03T04:36:23.977Z,4.90
2023-03-03T04:38:51.967Z,4.90
2023-03-03T04:41:26.021Z,4.90
2023-03-03T04:43:56.066Z,4.90
2023-03-03T04:46:24.106Z,4.90
2023-03-03T04:48:51.126Z,4.90
2023-03-03T04:51:20.064Z,4.90
2023-03-03T04:53:50.014Z,4.90
2023-03-03T04:56:18.060Z,4.90
2023-03-03T04:58:47.104Z,4.90
2023-03-03T05:01:15.627Z,4.90
2023-03-03T05:03:42.794Z,4.90
2023-03-03T05:06:09.805Z,4.90
2023-03-03T05:08:37.838Z,5.00
2023-03-03T05:11:06.079Z,5.00
2023-03-03T05:13:33.065Z,5.00
2023-03-03T05:16:06.641Z,5.00
2023-03-03T05:18:36.771Z,5.00
2023-03-03T05:21:03.918Z,5.00
2023-03-03T05:23:31.565Z,5.00
2023-03-03T05:26:00.547Z,5.00
2023-03-03T05:28:27.494Z,5.00
2023-03-03T05:30:54.539Z,5.00
2023-03-03T05:33:24.690Z,5.00
2023-03-03T05:35:56.566Z,5.10
2023-03-03T05:38:29.829Z,5.10
2023-03-03T05:40:56.950Z,5.00
2023-03-03T05:43:23.918Z,5.10
2023-03-03T05:45:59.137Z,5.10
2023-03-03T05:48:26.112Z,5.10
2023-03-03T05:50:54.683Z,5.10
2023-03-03T05:53:24.961Z,5.10
2023-03-03T05:55:51.961Z,5.10
2023-03-03T05:58:22.179Z,5.10
2023-03-03T06:00:51.228Z,5.10
2023-03-03T06:03:18.360Z,5.10
2023-03-03T06:05:46.413Z,5.10
2023-03-03T06:08:13.545Z,5.10
2023-03-03T06:10:43.364Z,5.10
2023-03-03T06:13:13.512Z,5.10
2023-03-03T06:15:43.731Z,5.10
2023-03-03T06:18:10.967Z,5.10
2023-03-03T06:20:39.113Z,5.20
2023-03-03T06:23:08.178Z,5.10
2023-03-03T06:25:36.310Z,5.20
2023-03-03T06:28:04.479Z,5.20
2023-03-03T06:30:34.667Z,5.20
2023-03-03T06:33:02.754Z,5.20
2023-03-03T06:35:30.758Z,5.20
2023-03-03T06:38:00.867Z,5.20
2023-03-03T06:40:31.148Z,5.20
2023-03-03T06:43:04.489Z,5.30
2023-03-03T06:45:32.466Z,5.30
2023-03-03T06:48:02.152Z,5.30
2023-03-03T06:50:30.262Z,5.30
2023-03-03T06:53:11.187Z,5.40
2023-03-03T06:55:39.060Z,5.40
2023-03-03T06:58:15.256Z,5.50
2023-03-03T07:00:57.194Z,5.60
2023-03-03T07:03:29.817Z,5.90
2023-03-03T07:05:57.979Z,6.80
2023-03-03T07:08:25.427Z,7.90
2023-03-03T07:10:55.543Z,8.90
2023-03-03T07:13:27.095Z,9.80
2023-03-03T07:16:00.942Z,10.50
2023-03-03T07:18:42.964Z,11.10
2023-03-03T07:21:33.593Z,11.70
2023-03-03T07:24:19.407Z,12.30
2023-03-03T07:27:24.055Z,12.90
2023-03-03T07:30:17.083Z,13.20
2023-03-03T07:32:49.904Z,13.70
2023-03-03T07:35:44.697Z,14.10
2023-03-03T07:38:16.813Z,14.60
2023-03-03T07:40:53.331Z,15.40
2023-03-03T07:43:38.665Z,16.10
2023-03-03T07:46:30.936Z,16.60
2023-03-03T07:49:00.818Z,17.10
2023-03-03T07:51:32.619Z,17.70
2023-03-03T07:54:33.829Z,18.20
2023-03-03T07:57:43.990Z,18.70
2023-03-03T08:00:23.200Z,19.10
2023-03-03T08:03:22.979Z,19.30
2023-03-03T08:06:14.849Z,19.50
2023-03-03T08:08:54.943Z,19.90
2023-03-03T08:11:32.780Z,19.80
2023-03-03T08:14:03.095Z,19.40
2023-03-03T08:16:44.505Z,19.80
2023-03-03T08:19:21.239Z,20.30
2023-03-03T08:21:51.823Z,20.70
2023-03-03T08:24:22.866Z,20.60
2023-03-03T08:26:52.942Z,20.10
2023-03-03T08:29:22.711Z,19.30
2023-03-03T08:31:50.216Z,18.50
2023-03-03T08:34:17.351Z,17.70
2023-03-03T08:36:59.696Z,17.40
2023-03-03T08:39:30.934Z,17.00
2023-03-03T08:42:07.910Z,16.20
2023-03-03T08:44:38.477Z,15.70
2023-03-03T08:47:06.292Z,15.70
2023-03-03T08:49:33.219Z,15.50
2023-03-03T08:52:03.872Z,15.30
2023-03-03T08:54:32.755Z,15.00
2023-03-03T08:56:59.710Z,14.70
2023-03-03T08:59:27.911Z,15.40
2023-03-03T09:01:57.090Z,16.30
2023-03-03T09:04:24.131Z,16.90
2023-03-03T09:06:51.092Z,16.70
2023-03-03T09:09:19.149Z,17.00
2023-03-03T09:11:48.260Z,17.60
2023-03-03T09:14:17.763Z,18.20
2023-03-03T09:16:53.865Z,18.50
2023-03-03T09:19:23.773Z,18.30
2023-03-03T09:21:57.670Z,18.40
2023-03-03T09:24:25.858Z,18.10
2023-03-03T09:26:55.198Z,17.50
2023-03-03T09:29:37.482Z,17.40
2023-03-03T09:32:32.525Z,17.70
2023-03-03T09:35:00.584Z,18.40
2023-03-03T09:37:37.162Z,18.60
2023-03-03T09:40:31.796Z,19.30
2023-03-03T09:43:05.917Z,19.90
2023-03-03T09:45:50.508Z,20.30
2023-03-03T09:48:44.531Z,20.10
2023-03-03T09:51:30.542Z,20.10
2023-03-03T09:54:08.837Z,20.40
2023-03-03T09:57:10.050Z,20.20
2023-03-03T10:00:05.489Z,19.60
2023-03-03T10:02:41.891Z,19.30
2023-03-03T10:05:34.593Z,19.00
2023-03-03T10:08:25.802Z,19.00
2023-03-03T10:11:01.724Z,19.10
2023-03-03T10:13:41.735Z,19.40
2023-03-03T10:16:33.251Z,19.60
2023-03-03T10:19:29.131Z,19.40
2023-03-03T10:22:05.034Z,19.50
2023-03-03T10:25:00.757Z,20.00
2023-03-03T10:28:07.136Z,20.10
2023-03-03T10:31:10.734Z,20.50
2023-03-03T10:33:52.457Z,20.80
2023-03-03T10:36:34.009Z,21.40
2023-03-03T10:39:22.357Z,21.80
2023-03-03T10:42:14.440Z,22.00
2023-03-03T10:45:18.051Z,22.30
2023-03-03T10:48:09.473Z,23.20
2023-03-03T10:51:04.529Z,23.90
2023-03-03T10:53:54.265Z,24.10
2023-03-03T10:57:01.993Z,24.40
2023-03-03T10:59:59.028Z,24.40
2023-03-03T11:02:45.568Z,24.60
2023-03-03T11:05:41.730Z,24.90
2023-03-03T11:08:48.221Z,25.10
2023-03-03T11:11:42.551Z,24.80
2023-03-03T11:14:31.926Z,24.50
2023-03-03T11:17:29.922Z,24.20
2023-03-03T11:20:04.918Z,23.60
2023-03-03T11:22:50.180Z,23.40
2023-03-03T11:25:56.743Z,23.10
2023-03-03T11:28:57.821Z,23.00
2023-03-03T11:31:48.039Z,22.90
2023-03-03T11:34:45.909Z,22.80
2023-03-03T11:37:41.015Z,22.80
2023-03-03T11:40:32.740Z,22.60
2023-03-03T11:43:37.081Z,22.20
2023-03-03T11:46:18.917Z,21.50
2023-03-03T11:48:45.895Z,20.80
2023-03-03T11:51:43.247Z,20.20
2023-03-03T11:54:23.209Z,19.60
2023-03-03T11:56:51.217Z,19.30
2023-03-03T11:59:33.360Z,19.20
2023-03-03T12:02:06.552Z,19.00
2023-03-03T12:04:54.334Z,18.70
2023-03-03T12:07:44.745Z,18.40
2023-03-03T12:10:21.654Z,18.10
2023-03-03T12:13:14.959Z,17.90
2023-03-03T12:16:06.507Z,17.60
2023-03-03T12:18:47.103Z,17.60
2023-03-03T12:21:37.678Z,17.50
2023-03-03T12:24:30.938Z,17.40
2023-03-03T12:27:11.276Z,17.40
2023-03-03T12:30:19.108Z,17.00
2023-03-03T12:32:48.833Z,16.90
2023-03-03T12:35:35.187Z,16.90
2023-03-03T12:38:26.107Z,16.90
2023-03-03T12:41:16.867Z,17.00
2023-03-03T12:44:06.198Z,17.00
2023-03-03T12:46:40.363Z,16.90
2023-03-03T12:49:07.428Z,16.80
2023-03-03T12:52:15.676Z,16.70
2023-03-03T12:54:53.717Z,16.60
2023-03-03T12:58:15.071Z,16.60
2023-03-03T13:01:01.482Z,16.20
2023-03-03T13:03:56.151Z,15.90
2023-03-03T13:06:30.130Z,15.50
2023-03-03T13:09:19.751Z,15.20
2023-03-03T13:11:55.413Z,14.70
2023-03-03T13:14:47.603Z,14.20
2023-03-03T13:17:39.029Z,13.80
2023-03-03T13:20:21.169Z,13.40
2023-03-03T13:23:08.932Z,13.10
2023-03-03T13:25:54.283Z,12.90
2023-03-03T13:28:42.811Z,12.80
2023-03-03T13:31:19.166Z,12.80
2023-03-03T13:34:02.110Z,12.80
2023-03-03T13:36:57.409Z,12.90
2023-03-03T13:39:28.724Z,12.90
2023-03-03T13:42:03.378Z,13.20
2023-03-03T13:44:43.615Z,13.40
2023-03-03T13:47:32.098Z,13.60
2023-03-03T13:50:07.950Z,13.80
2023-03-03T13:53:04.202Z,13.90
2023-03-03T13:55:39.314Z,14.00
2023-03-03T13:58:26.122Z,14.10
2023-03-03T14:01:09.692Z,14.00
2023-03-03T14:04:03.501Z,13.90
2023-03-03T14:06:32.935Z,13.90
2023-03-03T14:09:22.157Z,13.90
2023-03-03T14:12:08.617Z,14.00
2023-03-03T14:15:08.818Z,14.00
2023-03-03T14:17:43.572Z,14.10
2023-03-03T14:20:30.209Z,14.20
2023-03-03T14:23:02.483Z,14.30
2023-03-03T14:25:51.722Z,14.30
2023-03-03T14:28:21.396Z,14.30
2023-03-03T14:30:55.020Z,14.30
2023-03-03T14:33:27.338Z,14.20
2023-03-03T14:35:58.402Z,14.20
2023-03-03T14:38:41.671Z,14.10
2023-03-03T14:41:12.693Z,14.10
2023-03-03T14:44:01.533Z,13.90
2023-03-03T14:46:37.567Z,13.80
2023-03-03T14:49:28.458Z,13.80
2023-03-03T14:52:04.076Z,13.60
2023-03-03T14:54:42.945Z,13.60
2023-03-03T14:57:20.337Z,13.50
2023-03-03T14:59:59.394Z,13.60
2023-03-03T15:03:11.600Z,13.60
2023-03-03T15:05:49.675Z,13.50
2023-03-03T15:08:28.531Z,13.30
2023-03-03T15:10:55.595Z,13.00
2023-03-03T15:13:29.526Z,12.80
2023-03-03T15:15:59.570Z,12.70
2023-03-03T15:18:28.215Z,12.70
2023-03-03T15:21:17.023Z,12.70
2023-03-03T15:24:13.308Z,12.60
2023-03-03T15:27:11.474Z,12.60
2023-03-03T15:29:57.488Z,12.40
2023-03-03T15:32:40.620Z,12.00
2023-03-03T15:35:22.899Z,11.70
2023-03-03T15:38:02.172Z,11.50
2023-03-03T15:40:44.784Z,11.30
2023-03-03T15:43:49.305Z,11.10
2023-03-03T15:46:44.970Z,10.90
2023-03-03T15:49:20.858Z,10.70
2023-03-03T15:52:05.813Z,10.50
2023-03-03T15:54:46.302Z,10.40
2023-03-03T15:58:04.201Z,10.40
2023-03-03T16:00:46.739Z,10.30
2023-03-03T16:03:20.908Z,10.10
2023-03-03T16:06:04.978Z,10.10
2023-03-03T16:08:54.624Z,10.00
2023-03-03T16:11:48.169Z,9.90
2023-03-03T16:14:57.257Z,9.80
2023-03-03T16:17:57.828Z,9.70
2023-03-03T16:20:28.479Z,9.60
2023-03-03T16:23:25.228Z,9.40
2023-03-03T16:26:07.909Z,9.30
2023-03-03T16:28:52.104Z,9.20
2023-03-03T16:31:34.014Z,9.00
2023-03-03T16:34:23.660Z,8.90
2023-03-03T16:37:08.857Z,8.80
2023-03-03T16:39:49.294Z,8.70
2023-03-03T16:42:25.612Z,8.60
2023-03-03T16:45:09.473Z,8.60
2023-03-03T16:47:57.474Z,8.50
2023-03-03T16:50:39.078Z,8.50
2023-03-03T16:53:13.265Z,8.40
2023-03-03T16:55:59.653Z,8.30
2023-03-03T16:58:40.635Z,8.30
2023-03-03T17:01:32.402Z,8.30
2023-03-03T17:04:26.551Z,8.20
2023-03-03T17:07:20.613Z,8.20
2023-03-03T17:10:04.210Z,8.10
2023-03-03T17:13:02.506Z,8.10
2023-03-03T17:15:41.681Z,8.10
2023-03-03T17:18:45.773Z,8.10
2023-03-03T17:21:31.573Z,8.00
2023-03-03T17:24:23.062Z,8.00
2023-03-03T17:27:09.129Z,8.00
2023-03-03T17:29:41.613Z,8.00
2023-03-03T17:32:39.539Z,8.00
2023-03-03T17:35:45.082Z,8.00
2023-03-03T17:38:37.705Z,7.90
2023-03-03T17:41:40.001Z,7.90
2023-03-03T17:44:32.020Z,7.80
2023-03-03T17:47:05.730Z,7.80
2023-03-03T17:49:45.392Z,7.80
2023-03-03T17:52:39.919Z,7.80
2023-03-03T17:55:32.089Z,7.80
2023-03-03T17:58:42.894Z,7.70
2023-03-03T18:01:35.083Z,7.70
2023-03-03T18:04:25.322Z,7.70
2023-03-03T18:07:11.131Z,7.70
2023-03-03T18:10:18.767Z,7.70
2023-03-03T18:13:31.191Z,7.70
2023-03-03T18:16:19.240Z,7.70
2023-03-03T18:18:55.812Z,7.70
2023-03-03T18:21:26.912Z,7.70
2023-03-03T18:24:26.961Z,7.70
2023-03-03T18:26:56.434Z,7.70
2023-03-03T18:29:32.673Z,7.70
2023-03-03T18:31:59.595Z,7.60
2023-03-03T18:34:38.720Z,7.70
2023-03-03T18:37:30.841Z,7.70
2023-03-03T18:40:05.037Z,7.70
2023-03-03T18:42:44.289Z,7.70
2023-03-03T18:45:20.449Z,7.70
2023-03-03T18:48:10.125Z,7.70
2023-03-03T18:50:56.911Z,7.60
2023-03-03T18:53:36.080Z,7.60
2023-03-03T18:56:11.258Z,7.60
2023-03-03T18:58:41.916Z,7.50
2023-03-03T19:01:11.567Z,7.50
2023-03-03T19:03:49.581Z,7.50
2023-03-03T19:06:42.030Z,7.50
2023-03-03T19:09:19.838Z,7.50
2023-03-03T19:11:49.823Z,7.50
2023-03-03T19:14:32.006Z,7.60
2023-03-03T19:17:22.838Z,7.60
2023-03-03T19:20:15.392Z,7.60
2023-03-03T19:22:49.138Z,7.70
2023-03-03T19:25:16.264Z,7.70
2023-03-03T19:28:14.845Z,7.70
2023-03-03T19:31:16.547Z,7.70
2023-03-03T19:34:11.577Z,7.80
2023-03-03T19:36:57.982Z,7.80
2023-03-03T19:39:46.191Z,7.80
2023-03-03T19:42:31.805Z,7.80
2023-03-03T19:45:13.609Z,7.80
2023-03-03T19:47:44.002Z,7.70
2023-03-03T19:50:24.206Z,7.80
2023-03-03T19:53:10.870Z,7.80
2023-03-03T19:56:04.020Z,7.80
2023-03-03T19:58:51.357Z,7.80
2023-03-03T20:01:41.634Z,7.80
2023-03-03T20:04:29.825Z,7.80
2023-03-03T20:07:24.265Z,7.80
2023-03-03T20:10:40.890Z,7.70
2023-03-03T20:13:27.308Z,7.70
2023-03-03T20:16:04.381Z,7.60
2023-03-03T20:19:19.693Z,7.60
2023-03-03T20:21:55.310Z,7.50
2023-03-03T20:24:41.521Z,7.50
2023-03-03T20:27:51.753Z,7.50
2023-03-03T20:30:23.196Z,7.50
2023-03-03T20:32:51.229Z,7.50
2023-03-03T20:35:55.915Z,7.40
2023-03-03T20:38:53.660Z,7.40
2023-03-03T20:42:05.904Z,7.40
2023-03-03T20:44:50.165Z,7.50
2023-03-03T20:47:17.062Z,7.40
2023-03-03T20:49:54.411Z,7.40
2023-03-03T20:52:21.877Z,7.40
2023-03-03T20:54:57.168Z,7.50
2023-03-03T20:57:36.632Z,7.50
2023-03-03T21:00:18.050Z,7.50
2023-03-03T21:03:19.972Z,7.40
2023-03-03T21:06:01.385Z,7.40
2023-03-03T21:08:56.351Z,7.40
2023-03-03T21:11:32.526Z,7.40
2023-03-03T21:14:12.317Z,7.40
2023-03-03T21:16:42.780Z,7.40
2023-03-03T21:19:24.007Z,7.40
2023-03-03T21:21:54.442Z,7.40
2023-03-03T21:24:22.191Z,7.40
2023-03-03T21:26:55.946Z,7.40
2023-03-03T21:29:30.389Z,7.50
2023-03-03T21:31:58.780Z,7.50
2023-03-03T21:34:31.600Z,7.40
2023-03-03T21:37:01.863Z,7.50
2023-03-03T21:39:38.714Z,7.50
2023-03-03T21:42:29.459Z,7.40
2023-03-03T21:44:56.921Z,7.40
2023-03-03T21:47:28.934Z,7.50
2023-03-03T21:49:55.947Z,7.40
2023-03-03T21:52:23.559Z,7.50
2023-03-03T21:54:52.522Z,7.50
2023-03-03T21:57:22.032Z,7.50
2023-03-03T21:59:48.981Z,7.50
2023-03-03T22:02:22.644Z,7.50
2023-03-03T22:04:51.167Z,7.50
2023-03-03T22:07:19.154Z,7.50
2023-03-03T22:09:46.150Z,7.50
2023-03-03T22:12:16.214Z,7.40
2023-03-03T22:14:43.131Z,7.40
2023-03-03T22:17:12.149Z,7.40
2023-03-03T22:19:42.117Z,7.40
2023-03-03T22:22:10.073Z,7.40
2023-03-03T22:24:37.075Z,7.40
2023-03-03T22:27:04.130Z,7.40
2023-03-03T22:29:31.138Z,7.40
2023-03-03T22:31:59.274Z,7.40
2023-03-03T22:34:26.414Z,7.40
2023-03-03T22:36:53.435Z,7.40
2023-03-03T22:39:20.380Z,7.40
2023-03-03T22:42:01.582Z,7.50
2023-03-03T22:44:28.678Z,7.40
2023-03-03T22:46:55.648Z,7.50
2023-03-03T22:49:23.633Z,7.50
2023-03-03T22:51:50.748Z,7.50
2023-03-03T22:54:17.648Z,7.50
2023-03-03T22:56:47.742Z,7.50
2023-03-03T22:59:16.862Z,7.50
2023-03-03T23:01:45.936Z,7.40
2023-03-03T23:04:12.963Z,7.50
2023-03-03T23:06:39.920Z,7.40
2023-03-03T23:09:07.956Z,7.40
2023-03-03T23:11:34.931Z,7.40
2023-03-03T23:14:02.054Z,7.40
2023-03-03T23:16:31.160Z,7.40
2023-03-03T23:19:01.293Z,7.50
2023-03-03T23:21:29.295Z,7.50
2023-03-03T23:24:00.209Z,7.50
2023-03-03T23:26:30.654Z,7.50
2023-03-03T23:29:00.655Z,7.50
2023-03-03T23:31:28.622Z,7.50
2023-03-03T23:34:03.245Z,7.50
2023-03-03T23:36:37.313Z,7.40
2023-03-03T23:39:06.577Z,7.50
2023-03-03T23:41:38.471Z,7.40
2023-03-03T23:44:05.558Z,7.40
2023-03-03T23:46:33.618Z,7.40
2023-03-03T23:49:02.170Z,7.40
2023-03-03T23:51:32.932Z,7.40
2023-03-03T23:54:02.995Z,7.40
2023-03-03T23:56:32.037Z,7.40
2023-03-03T23:59:01.053Z,7.40
